ADDS METAR Data INFO
IDs: Format: Raw Decoded Include TAF

Data at: 0923 UTC 17 Oct 2017

PAGS 170904Z AUTO 17004KT 10SM -RA FEW013 BKN026 OVC033 04/03 A2958 RMK AO2 P0000
PAGS 170856Z AUTO 00000KT 10SM -RA SCT026 OVC033 04/03 A2958 RMK AO2 RAB45 SLP017 P0001 60001 T00390033 400720033 53009
PAGS 170839Z AUTO 00000KT 3SM BR BKN031 04/03 A2958 RMK AO2
PAGS 170831Z AUTO 00000KT 1 3/4SM BR BKN031 03/03 A2957 RMK AO2
PAGS 170756Z AUTO 00000KT 10SM OVC032 04/03 A2957 RMK AO2 SLP014 T00440033
PAGS 170738Z AUTO 12003KT 10SM FEW021 BKN034 04/03 A2957 RMK AO2
PAGS 170727Z AUTO 11003KT 10SM BKN024 BKN034 05/04 A2957 RMK AO2
PAGS 170656Z AUTO 11004KT 10SM FEW026 SCT040 05/04 A2956 RMK AO2 RAB0559E22 SLP011 P0000 T00500039
PAGS 170647Z AUTO 12005KT 10SM SCT027 BKN040 05/04 A2956 RMK AO2 RAB0559E22 P0000
PAGS 170617Z AUTO 00000KT 10SM -RA BKN025 OVC036 05/04 A2956 RMK AO2 RAB0559 P0000
PAGS 170556Z AUTO 11004KT 10SM FEW025 BKN038 OVC047 05/04 A2956 RMK AO2 RAB02E38 SLP009 P0000 60007 T00500039 10061 20050 51006
PAGS 170534Z AUTO 08004KT 10SM -RA FEW024 BKN045 05/04 A2956 RMK AO2 RAB02 P0000
PAGS 170456Z AUTO 06005KT 10SM BKN026 BKN035 OVC045 05/04 A2955 RMK AO2 RAE55 SLP008 P0006 T00500044
PAGS 170356Z AUTO 05003KT 10SM -RA BKN024 BKN030 OVC035 06/04 A2954 RMK AO2 RAB34 SLP004 P0001 T00560044
PAGS 170256Z AUTO 29004KT 10SM OVC026 06/04 A2954 RMK AO2 RAE04 SLP002 P0000 60000 T00560044 53002
PAGS 170225Z AUTO 00000KT 10SM BKN026 OVC036 06/04 A2953 RMK AO2 RAE04 P0000
PAGS 170156Z AUTO 12003KT 10SM -RA SCT026 OVC037 06/04 A2953 RMK AO2 RAB37 SLP999 P0000 T00560044
PAGS 170056Z AUTO 14005KT 10SM OVC030 06/05 A2953 RMK AO2 RAE10 SLP999 P0000 T00610050
PAGS 170049Z AUTO 14004KT 10SM OVC030 06/05 A2953 RMK AO2 RAE10 P0000
PAGS 162356Z AUTO 17003KT 10SM -RA OVC024 06/05 A2953 RMK AO2 SLP000 P0002 60002 T00610050 10072 20061 52004
PAGS 162256Z AUTO 13008KT 10SM -RA SCT014 BKN027 OVC034 07/05 A2952 RMK AO2 RAB25 SLP998 P0000 T00670050
PAGS 162225Z AUTO 12007KT 10SM -RA BKN014 OVC033 07/04 A2953 RMK AO2 RAB25 P0000
PAGS 162156Z AUTO 13007KT 10SM FEW012 OVC035 07/04 A2953 RMK AO2 SLP999 T00670044
PAGS 162056Z AUTO 13009KT 10SM SCT035 BKN042 OVC110 07/04 A2952 RMK AO2 RAB39E53 SLP997 P0000 60000 T00670044 56000
PAGS 161956Z AUTO 13007KT 10SM OVC034 07/04 A2952 RMK AO2 RAB1859E33 SLP997 P0000 T00670044
PAGS 161856Z AUTO 12007KT 10SM BKN041 BKN050 OVC070 06/04 A2952 RMK AO2 RAE1758B37E55 SLP996 P0000 T00610044
PAGS 161756Z AUTO 14005KT 10SM -RA BKN033 OVC048 06/04 A2952 RMK AO2 RAE05B23 SLP997 P0000 60002 T00560044 10061 20050 56006
PAGS 161656Z AUTO 12009KT 10SM -RA FEW030 BKN038 OVC047 05/04 A2953 RMK AO2 RAE05B24 SLP998 P0000 T00500039
PAGS 161556Z AUTO 12007KT 10SM -RA OVC036 05/03 A2953 RMK AO2 RAB42 SLP001 P0000 T00500033
PAGS 161507Z AUTO 13009KT 10SM FEW008 BKN049 OVC060 05/04 A2954 RMK AO2
PAGS 161456Z AUTO 12009KT 10SM FEW032 BKN047 OVC060 05/04 A2954 RMK AO2 RAE51 SLP003 P0001 60002 T00500039 58020
PAGS 161415Z AUTO 15006KT 10SM -RA OVC032 05/04 A2955 RMK AO2 P0000
PAGS 161406Z AUTO 12006KT 10SM -RA BKN028 OVC037 05/04 A2955 RMK AO2 P0000
PAGS 161356Z AUTO 15006KT 10SM -RA SCT028 BKN037 OVC046 05/04 A2956 RMK AO2 RAB14 SLP010 P0000 T00500039
PAGS 161256Z AUTO 14011KT 10SM BKN030 OVC045 06/04 A2958 RMK AO2 RAE47 SLP018 P0001 T00560044
PAGS 161156Z AUTO 14012KT 10SM -RA FEW027 BKN035 OVC045 06/04 A2960 RMK AO2 RAB00 SLP024 P0002 60009 70044 T00610044 10067 20061 58016
PAGS 161135Z AUTO 14009KT 10SM -RA FEW027 OVC034 06/04 A2960 RMK AO2 RAB00 P0002
PAGS 161056Z AUTO 14010KT 10SM SCT014 OVC032 06/04 A2962 RMK AO2 RAE39 SLP030 P0002 T00610044
PAGS 161053Z AUTO 14010KT 10SM SCT014 SCT018 OVC032 06/05 A2962 RMK AO2 RAE39 P0002
PAGS 161044Z AUTO 13007KT 10SM BKN014 OVC030 06/05 A2962 RMK AO2 RAE39 P0002
PAGS 161041Z AUTO 13006KT 10SM SCT014 SCT023 OVC030 06/05 A2963 RMK AO2 RAE39 P0002
PAGS 160956Z AUTO 14007KT 8SM RA BKN028 BKN036 OVC043 06/05 A2964 RMK AO2 SLP037 P0002 T00610050
PAGS 160942Z AUTO 14006KT 10SM -RA SCT028 BKN036 OVC043 06/05 A2964 RMK AO2 P0001
PAGS 160856Z AUTO 15004KT 9SM -RA OVC028 06/05 A2965 RMK AO2 RAB0757 SLP040 P0003 60003 T00610050 400830033 51005
PAGS 160851Z AUTO 15004KT 8SM -RA OVC028 06/05 A2965 RMK AO2 RAB0757 P0002 400830033
PAGS 160756Z AUTO 13009KT 10SM BKN035 BKN046 OVC060 06/05 A2964 RMK AO2 RAB20E45 SLP038 P0000 T00610050
PAGS 160656Z AUTO 13009KT 10SM BKN036 BKN090 06/05 A2963 RMK AO2 RAE12 SLP035 P0000 T00610050
PAGS 160556Z AUTO 12006KT 10SM -RA FEW027 BKN032 OVC050 06/05 A2964 RMK AO2 RAB21 SLP037 P0001 60008 T00610050 10072 20061 51007
PAGS 160456Z AUTO 13007KT 10SM BKN030 OVC035 07/04 A2964 RMK AO2 SLP036 T00670044
PAGS 160451Z AUTO 13008KT 10SM BKN030 OVC035 07/04 A2964 RMK AO2
PAGS 160356Z AUTO 15005KT 10SM OVC026 07/05 A2962 RMK AO2 RAE06 SLP029 P0000 T00670050
PAGS 160256Z AUTO 14005KT 10SM -RA BKN019 OVC028 07/06 A2961 RMK AO2 RAB17 SLP027 P0002 60007 T00670056 53011
PAGS 160156Z AUTO 14006KT 10SM OVC022 07/06 A2959 RMK AO2 RAE48 SLP020 P0004 T00670056
PAGS 160056Z AUTO 12004KT 10SM RA BKN029 OVC036 07/06 A2958 RMK AO2 RAB02 SLP016 P0001 T00720056
PAGS 152356Z AUTO VRB03KT 10SM BKN033 BKN043 BKN050 07/06 A2957 RMK AO2 RAE51 SLP015 P0005 60020 T00720056 10083 20067 51013
PAGS 152256Z AUTO 17004KT 10SM -RA FEW019 BKN039 OVC095 07/06 A2956 RMK AO2 SLP012 P0010 T00720056
PAGS 152215Z AUTO 16003KT 7SM RA FEW019 BKN029 OVC033 08/07 A2956 RMK AO2 P0002
PAGS 152156Z AUTO 21003KT 9SM -RA FEW021 OVC031 08/07 A2955 RMK AO2 SLP007 P0002 T00780067
PAGS 152132Z AUTO 10006KT 10SM FEW021 SCT028 OVC035 08/07 A2954 RMK AO2 RAE26 P0001